Terminal Aerodrome Forecast
Issued by NWS

Home | Current Version | Previous Version | Text Only | Print | Product List | Glossary On
Versions: 1 2 3 4 5 6 7 8 9 10 11 12 13 14 15 16 17 18 19 20 21 22 23 24
601
FTUS44 KLIX 250529
TAFHDC
TAF
KHDC 250529Z 2506/2606 VRB03KT P6SM SCT040
     FM250900 00000KT P6SM BKN040
     FM251100 00000KT P6SM BKN025
     FM251500 17007KT P6SM BKN050=

USA.gov is the U.S. government's official web portal to all federal, state and local government web resources and services.